createdAt,value
2022-09-01T00:02:04.021Z,3.20
2022-09-01T00:05:44.564Z,2.90
2022-09-01T00:09:31.426Z,1.90
2022-09-01T00:13:21.852Z,1.40
2022-09-01T00:17:09.497Z,2.10
2022-09-01T00:20:57.784Z,1.90
2022-09-01T00:24:46.414Z,1.80
2022-09-01T00:28:34.082Z,1.80
2022-09-01T00:32:22.181Z,3.30
2022-09-01T00:36:10.680Z,3.20
2022-09-01T00:39:58.658Z,3.30
2022-09-01T00:43:52.491Z,4.40
2022-09-01T00:47:44.924Z,2.50
2022-09-01T00:51:32.970Z,2.30
2022-09-01T00:55:20.714Z,2.30
2022-09-01T00:59:08.135Z,4.90
2022-09-01T01:02:55.957Z,5.60
2022-09-01T01:06:36.941Z,5.20
2022-09-01T01:10:24.672Z,4.20
2022-09-01T01:14:12.604Z,5.20
2022-09-01T01:18:00.003Z,4.50
2022-09-01T01:21:45.835Z,4.80
2022-09-01T01:25:33.382Z,4.30
2022-09-01T01:29:20.438Z,4.00
2022-09-01T01:33:08.470Z,3.20
2022-09-01T01:36:54.795Z,2.30
2022-09-01T01:40:43.050Z,2.30
2022-09-01T01:44:31.192Z,2.30
2022-09-01T01:48:18.742Z,2.00
2022-09-01T01:52:08.214Z,1.90
2022-09-01T01:55:44.751Z,1.90
2022-09-01T01:59:32.244Z,1.70
2022-09-01T02:03:19.914Z,2.10
2022-09-01T02:07:09.526Z,2.00
2022-09-01T02:10:57.308Z,2.00
2022-09-01T02:14:45.263Z,2.00
2022-09-01T02:18:33.034Z,1.80
2022-09-01T02:22:20.642Z,1.60
2022-09-01T02:26:16.864Z,1.90
2022-09-01T02:30:04.876Z,2.10
2022-09-01T02:33:52.638Z,2.20
2022-09-01T02:37:44.061Z,1.80
2022-09-01T02:41:31.945Z,1.80
2022-09-01T02:45:20.011Z,2.20
2022-09-01T02:49:08.057Z,2.30
2022-09-01T02:52:55.620Z,2.40
2022-09-01T02:56:43.536Z,2.00
2022-09-01T03:00:31.309Z,3.30
2022-09-01T03:04:19.076Z,2.10
2022-09-01T03:08:07.865Z,1.90
2022-09-01T03:11:55.479Z,2.00
2022-09-01T03:15:43.119Z,2.10
2022-09-01T03:19:30.743Z,2.20
2022-09-01T03:23:19.415Z,2.20
2022-09-01T03:27:07.566Z,2.20
2022-09-01T03:30:55.255Z,2.80
2022-09-01T03:34:43.013Z,2.70
2022-09-01T03:38:32.728Z,3.50
2022-09-01T03:42:20.054Z,3.30
2022-09-01T03:46:07.954Z,3.40
2022-09-01T03:49:47.783Z,2.90
2022-09-01T03:53:15.398Z,3.40
2022-09-01T03:57:03.538Z,2.90
2022-09-01T04:00:51.563Z,2.60
2022-09-01T04:04:20.338Z,2.70
2022-09-01T04:08:07.896Z,3.80
2022-09-01T04:11:58.576Z,3.10
2022-09-01T04:15:46.572Z,2.90
2022-09-01T04:19:40.566Z,3.50
2022-09-01T04:23:31.326Z,3.80
2022-09-01T04:27:18.891Z,2.40
2022-09-01T04:31:07.258Z,3.80
2022-09-01T04:34:58.631Z,3.40
2022-09-01T04:38:46.404Z,3.40
2022-09-01T04:42:35.153Z,3.20
2022-09-01T04:46:24.856Z,3.50
2022-09-01T04:50:13.144Z,2.90
2022-09-01T04:54:03.807Z,3.50
2022-09-01T04:57:52.106Z,4.10
2022-09-01T05:01:39.949Z,3.30
2022-09-01T05:05:27.652Z,2.70
2022-09-01T05:09:15.009Z,2.60
2022-09-01T05:13:06.504Z,3.60
2022-09-01T05:16:57.166Z,3.00
2022-09-01T05:20:42.709Z,2.10
2022-09-01T05:24:23.191Z,3.20
2022-09-01T05:28:11.168Z,2.30
2022-09-01T05:31:58.864Z,1.60
2022-09-01T05:35:46.564Z,2.00
2022-09-01T05:39:34.343Z,1.40
2022-09-01T05:43:21.874Z,1.60
2022-09-01T05:47:10.260Z,2.80
2022-09-01T05:51:22.381Z,2.90
2022-09-01T05:55:15.451Z,2.60
2022-09-01T06:03:08.276Z,3.00
2022-09-01T06:07:06.973Z,2.60
2022-09-01T06:10:55.732Z,1.70
2022-09-01T06:14:43.188Z,1.60
2022-09-01T06:18:30.767Z,1.10
2022-09-01T06:22:18.435Z,2.00
2022-09-01T06:26:07.753Z,0.50
2022-09-01T06:30:00.939Z,1.40
2022-09-01T06:33:48.466Z,1.50
2022-09-01T06:37:39.590Z,1.40
2022-09-01T06:41:28.185Z,1.40
2022-09-01T06:45:15.970Z,1.70
2022-09-01T06:49:06.897Z,1.50
2022-09-01T06:58:03.554Z,0.50
2022-09-01T07:01:11.381Z,1.40
2022-09-01T07:05:02.336Z,1.30
2022-09-01T07:13:05.546Z,0.60
2022-09-01T07:17:23.142Z,1.00
2022-09-01T07:21:36.320Z,0.90
2022-09-01T07:25:14.432Z,0.30
2022-09-01T07:29:11.318Z,0.50
2022-09-01T07:33:41.690Z,0.40
2022-09-01T07:38:47.114Z,0.30
2022-09-01T07:45:29.145Z,0.80
2022-09-01T07:49:51.340Z,0.80
2022-09-01T07:53:28.395Z,0.80
2022-09-01T07:57:16.491Z,0.60
2022-09-01T08:01:05.286Z,0.40
2022-09-01T08:04:56.653Z,0.60
2022-09-01T08:08:45.352Z,0.30
2022-09-01T08:12:34.534Z,0.50
2022-09-01T08:16:24.124Z,0.60
2022-09-01T08:20:14.207Z,0.20
2022-09-01T08:24:14.501Z,0.40
2022-09-01T08:28:04.129Z,0.60
2022-09-01T08:31:52.949Z,0.50
2022-09-01T08:35:40.997Z,0.30
2022-09-01T08:39:28.976Z,0.50
2022-09-01T08:43:32.770Z,0.70
2022-09-01T08:47:28.721Z,0.40
2022-09-01T08:51:20.587Z,0.60
2022-09-01T08:55:49.458Z,0.40
2022-09-01T08:59:37.217Z,0.50
2022-09-01T09:03:52.900Z,0.50
2022-09-01T09:07:53.802Z,0.60
2022-09-01T09:11:54.088Z,0.70
2022-09-01T09:15:42.255Z,0.40
2022-09-01T09:19:33.269Z,0.70
2022-09-01T09:23:21.622Z,0.80
2022-09-01T09:27:11.100Z,0.80
2022-09-01T09:31:04.477Z,0.70
2022-09-01T09:35:07.818Z,1.30
2022-09-01T09:38:56.131Z,0.50
2022-09-01T09:42:44.434Z,0.80
2022-09-01T09:46:33.458Z,0.60
2022-09-01T09:50:24.175Z,0.60
2022-09-01T09:54:14.868Z,1.00
2022-09-01T09:58:05.925Z,0.50
2022-09-01T10:02:00.524Z,16.00
2022-09-01T10:06:08.622Z,1.00
2022-09-01T10:09:56.582Z,0.90
2022-09-01T10:13:44.677Z,0.30
2022-09-01T10:17:34.288Z,4.00
2022-09-01T10:21:26.626Z,0.50
2022-09-01T10:25:17.434Z,3.60
2022-09-01T10:29:06.101Z,0.30
2022-09-01T10:33:01.493Z,0.40
2022-09-01T10:36:58.994Z,0.30
2022-09-01T10:40:52.445Z,0.20
2022-09-01T10:49:27.803Z,0.40
2022-09-01T10:53:17.308Z,0.40
2022-09-01T10:57:12.275Z,0.30
2022-09-01T11:01:21.579Z,0.30
2022-09-01T11:05:10.763Z,0.40
2022-09-01T11:09:08.512Z,0.50
2022-09-01T11:13:18.340Z,0.40
2022-09-01T11:17:18.338Z,0.80
2022-09-01T11:21:07.975Z,0.50
2022-09-01T11:25:00.212Z,0.60
2022-09-01T11:29:08.454Z,0.30
2022-09-01T11:32:56.208Z,0.40
2022-09-01T11:36:44.454Z,0.40
2022-09-01T11:40:47.574Z,0.40
2022-09-01T11:44:35.794Z,0.50
2022-09-01T11:48:26.827Z,0.70
2022-09-01T11:52:23.522Z,0.90
2022-09-01T11:56:11.861Z,0.40
2022-09-01T12:00:12.076Z,0.60
2022-09-01T12:04:01.136Z,0.50
2022-09-01T12:07:54.857Z,0.70
2022-09-01T12:11:43.148Z,0.30
2022-09-01T12:15:43.411Z,0.40
2022-09-01T12:19:46.436Z,0.30
2022-09-01T12:23:36.796Z,0.40
2022-09-01T12:27:24.546Z,0.50
2022-09-01T12:31:12.772Z,0.30
2022-09-01T12:35:13.080Z,0.40
2022-09-01T12:39:18.959Z,0.50
2022-09-01T12:43:07.892Z,0.60
2022-09-01T12:46:56.881Z,0.40
2022-09-01T12:50:45.817Z,0.60
2022-09-01T12:54:33.904Z,0.50
2022-09-01T12:58:35.400Z,0.60
2022-09-01T13:02:26.988Z,0.40
2022-09-01T13:06:21.272Z,0.40
2022-09-01T13:10:10.043Z,0.50
2022-09-01T13:13:58.481Z,0.30
2022-09-01T13:17:46.839Z,5.10
2022-09-01T13:21:35.238Z,0.60
2022-09-01T13:25:23.194Z,0.40
2022-09-01T13:29:19.353Z,0.30
2022-09-01T13:33:23.474Z,0.40
2022-09-01T13:37:20.051Z,0.50
2022-09-01T13:41:08.417Z,0.60
2022-09-01T13:44:57.029Z,0.50
2022-09-01T13:52:55.378Z,0.60
2022-09-01T13:56:43.888Z,0.50
2022-09-01T14:00:34.806Z,0.60
2022-09-01T14:04:23.324Z,0.60
2022-09-01T14:08:12.292Z,0.90
2022-09-01T14:12:17.223Z,0.40
2022-09-01T14:16:06.439Z,0.30
2022-09-01T14:19:59.086Z,0.50
2022-09-01T14:23:49.568Z,0.40
2022-09-01T14:27:39.395Z,0.30
2022-09-01T14:31:30.982Z,0.30
2022-09-01T14:35:18.897Z,0.30
2022-09-01T14:39:11.382Z,5.40
2022-09-01T14:47:19.254Z,0.30
2022-09-01T14:55:29.672Z,1.10
2022-09-01T14:59:20.330Z,1.50
2022-09-01T15:03:10.357Z,0.40
2022-09-01T15:06:58.265Z,0.30
2022-09-01T15:10:51.893Z,1.40
2022-09-01T15:14:39.844Z,0.60
2022-09-01T15:18:29.163Z,0.60
2022-09-01T15:22:19.824Z,1.00
2022-09-01T15:26:19.664Z,0.50
2022-09-01T15:30:07.511Z,0.50
2022-09-01T15:33:55.885Z,2.20
2022-09-01T15:37:46.211Z,1.10
2022-09-01T15:41:36.554Z,0.40
2022-09-01T15:45:25.685Z,1.30
2022-09-01T15:49:13.564Z,0.50
2022-09-01T15:53:01.410Z,0.40
2022-09-01T15:56:49.379Z,1.00
2022-09-01T16:00:37.808Z,0.60
2022-09-01T16:04:33.663Z,0.40
2022-09-01T16:08:21.864Z,1.20
2022-09-01T16:12:09.956Z,0.60
2022-09-01T16:15:57.915Z,0.60
2022-09-01T16:19:54.171Z,0.60
2022-09-01T16:23:45.059Z,0.90
2022-09-01T16:27:33.526Z,0.70
2022-09-01T16:31:21.714Z,1.30
2022-09-01T16:39:26.763Z,0.90
2022-09-01T16:43:32.932Z,1.10
2022-09-01T16:47:20.927Z,1.20
2022-09-01T16:51:10.480Z,1.00
2022-09-01T16:55:07.065Z,1.30
2022-09-01T16:59:07.081Z,0.70
2022-09-01T17:03:06.829Z,1.30
2022-09-01T17:06:54.887Z,0.70
2022-09-01T17:10:43.485Z,1.40
2022-09-01T17:14:41.034Z,0.90
2022-09-01T17:18:52.425Z,1.00
2022-09-01T17:22:43.759Z,3.30
2022-09-01T17:26:36.654Z,1.50
2022-09-01T17:30:27.584Z,1.40
2022-09-01T17:34:18.167Z,1.50
2022-09-01T17:38:05.991Z,1.70
2022-09-01T17:41:50.847Z,1.40
2022-09-01T17:45:38.963Z,1.50
2022-09-01T17:49:37.712Z,2.50
2022-09-01T17:53:31.926Z,1.30
2022-09-01T17:57:33.448Z,2.20
2022-09-01T18:01:20.489Z,1.60
2022-09-01T18:05:09.110Z,2.60
2022-09-01T18:09:21.412Z,3.60
2022-09-01T18:13:10.409Z,4.50
2022-09-01T18:17:00.239Z,4.10
2022-09-01T18:20:52.498Z,7.30
2022-09-01T18:25:00.126Z,4.40
2022-09-01T18:28:49.375Z,4.00
2022-09-01T18:32:49.303Z,4.90
2022-09-01T18:36:49.252Z,3.80
2022-09-01T18:40:42.988Z,2.30
2022-09-01T18:44:43.101Z,3.70
2022-09-01T18:48:31.447Z,1.00
2022-09-01T18:52:21.457Z,0.90
2022-09-01T18:56:37.576Z,1.10
2022-09-01T19:00:33.067Z,1.30
2022-09-01T19:04:29.069Z,3.20
2022-09-01T19:08:20.544Z,1.10
2022-09-01T19:12:25.774Z,1.10
2022-09-01T19:16:24.774Z,1.00
2022-09-01T19:20:28.628Z,1.00
2022-09-01T19:24:28.943Z,0.80
2022-09-01T19:28:18.186Z,1.60
2022-09-01T19:32:09.313Z,1.10
2022-09-01T19:35:58.030Z,0.90
2022-09-01T19:39:49.775Z,1.30
2022-09-01T19:43:43.720Z,0.80
2022-09-01T19:47:36.686Z,1.10
2022-09-01T19:51:24.706Z,1.30
2022-09-01T19:55:13.739Z,0.90
2022-09-01T19:59:08.060Z,1.20
2022-09-01T20:02:56.632Z,1.20
2022-09-01T20:06:54.321Z,1.20
2022-09-01T20:10:55.267Z,2.00
2022-09-01T20:14:46.510Z,1.70
2022-09-01T20:18:37.827Z,2.00
2022-09-01T20:22:30.635Z,2.50
2022-09-01T20:26:26.684Z,2.10
2022-09-01T20:30:30.809Z,1.60
2022-09-01T20:34:19.382Z,2.30
2022-09-01T20:38:18.952Z,2.30
2022-09-01T20:42:09.580Z,4.30
2022-09-01T20:46:00.719Z,3.60
2022-09-01T20:49:49.537Z,4.60
2022-09-01T20:54:08.814Z,4.60
2022-09-01T20:58:24.546Z,4.70
2022-09-01T21:02:17.448Z,5.70
2022-09-01T21:06:05.390Z,5.90
2022-09-01T21:09:55.611Z,6.80
2022-09-01T21:13:43.418Z,8.00
2022-09-01T21:17:43.555Z,8.50
2022-09-01T21:21:40.297Z,10.80
2022-09-01T21:25:27.833Z,10.40
2022-09-01T21:29:15.693Z,8.30
2022-09-01T21:33:03.567Z,4.50
2022-09-01T21:36:51.585Z,3.50
2022-09-01T21:40:43.622Z,3.00
2022-09-01T21:44:34.485Z,2.30
2022-09-01T21:48:22.506Z,2.20
2022-09-01T21:52:10.164Z,1.70
2022-09-01T21:55:57.836Z,1.60
2022-09-01T21:59:45.585Z,2.00
2022-09-01T22:03:33.312Z,1.70
2022-09-01T22:07:20.987Z,1.60
2022-09-01T22:11:08.842Z,1.50
2022-09-01T22:14:56.489Z,1.70
2022-09-01T22:18:44.996Z,1.70
2022-09-01T22:22:32.620Z,1.80
2022-09-01T22:26:20.203Z,2.10
2022-09-01T22:30:08.030Z,2.10
2022-09-01T22:33:56.139Z,2.40
2022-09-01T22:37:43.932Z,2.40
2022-09-01T22:41:32.036Z,2.80
2022-09-01T22:45:19.589Z,2.40
2022-09-01T22:49:07.353Z,2.80
2022-09-01T22:52:55.351Z,2.90
2022-09-01T22:56:43.214Z,2.80
2022-09-01T23:00:30.811Z,2.20
2022-09-01T23:04:18.675Z,2.50
2022-09-01T23:08:06.422Z,2.20
2022-09-01T23:11:54.060Z,2.10
2022-09-01T23:15:41.536Z,2.40
2022-09-01T23:19:28.968Z,2.00
2022-09-01T23:23:16.749Z,2.30
2022-09-01T23:27:04.408Z,2.70
2022-09-01T23:30:52.345Z,2.40
2022-09-01T23:34:40.379Z,2.00
2022-09-01T23:38:28.264Z,2.60
2022-09-01T23:42:15.531Z,2.40
2022-09-01T23:46:03.262Z,2.30
2022-09-01T23:49:52.618Z,2.40
2022-09-01T23:53:41.121Z,2.10
2022-09-01T23:57:29.065Z,2.50
